Time;durP1;ratioP1;P1;durP2;ratioP2;P2;SDS_P1;SDS_P2;PMS_P1;PMS_P2;Temp;Humidity;BMP_temperature;BMP_pressure;BME280_temperature;BME280_humidity;BME280_pressure;Samples;Min_cycle;Max_cycle;Signal;HPM_P1;HPM_P2
2023/05/16 00:02:18;;;;;;;15.48;4.13;;;8.80;99.90;;;;;;4992573;28;20030;-81
2023/05/16 00:04:45;;;;;;;16.80;3.55;;;8.70;99.90;;;;;;4999527;28;20084;-81
2023/05/16 00:07:11;;;;;;;13.20;3.90;;;8.70;99.90;;;;;;5007618;28;20037;-81
2023/05/16 00:09:37;;;;;;;19.98;4.53;;;8.60;99.90;;;;;;4990800;28;20088;-81
2023/05/16 00:12:03;;;;;;;17.98;4.10;;;8.70;99.90;;;;;;5006792;28;20046;-81
2023/05/16 00:14:29;;;;;;;14.43;3.58;;;8.60;99.90;;;;;;5001251;28;20037;-81
2023/05/16 00:16:57;;;;;;;13.63;3.28;;;8.50;99.90;;;;;;4991132;28;20033;-81
2023/05/16 00:19:25;;;;;;;15.82;3.42;;;8.50;99.90;;;;;;4990977;28;20042;-81
2023/05/16 00:21:51;;;;;;;14.77;3.65;;;8.40;99.90;;;;;;5008297;28;20041;-81
2023/05/16 00:24:17;;;;;;;11.63;3.08;;;8.40;99.90;;;;;;4991761;28;20045;-81
2023/05/16 00:26:43;;;;;;;12.00;3.67;;;8.40;99.90;;;;;;4979073;28;20045;-81
2023/05/16 00:29:08;;;;;;;16.88;3.45;;;8.30;99.90;;;;;;5013226;28;20073;-81
2023/05/16 00:31:34;;;;;;;14.77;3.13;;;8.30;99.90;;;;;;4995417;28;20052;-80
2023/05/16 00:34:00;;;;;;;17.10;3.45;;;8.30;99.90;;;;;;4995349;28;20411;-80
2023/05/16 00:36:25;;;;;;;11.68;3.40;;;8.20;99.90;;;;;;5011629;28;20577;-81
2023/05/16 00:38:51;;;;;;;15.05;3.78;;;8.20;99.90;;;;;;4987327;28;20038;-82
2023/05/16 00:41:17;;;;;;;14.63;3.72;;;8.10;99.90;;;;;;4979439;28;20049;-80
2023/05/16 00:43:43;;;;;;;19.00;3.90;;;8.10;99.90;;;;;;5019083;28;20042;-81
2023/05/16 00:46:08;;;;;;;19.00;3.22;;;8.10;99.90;;;;;;4975061;28;20052;-81
2023/05/16 00:48:34;;;;;;;11.98;3.55;;;8.10;99.90;;;;;;5010264;28;21581;-81
2023/05/16 00:51:01;;;;;;;20.92;3.90;;;8.00;99.90;;;;;;4978487;28;20443;-81
2023/05/16 00:53:27;;;;;;;12.52;2.92;;;8.00;99.90;;;;;;5010292;28;20040;-82
2023/05/16 00:55:53;;;;;;;12.07;3.53;;;7.90;99.90;;;;;;4987478;28;20113;-82
2023/05/16 00:58:21;;;;;;;13.85;2.97;;;8.00;99.90;;;;;;5008537;28;20456;-81
2023/05/16 01:00:47;;;;;;;19.60;3.47;;;7.90;99.90;;;;;;5030215;28;20065;-81
2023/05/16 01:03:13;;;;;;;16.55;3.50;;;7.80;99.90;;;;;;4994612;28;20060;-80
2023/05/16 01:05:39;;;;;;;14.05;3.13;;;7.80;99.90;;;;;;4980097;28;20069;-80
2023/05/16 01:08:05;;;;;;;22.83;3.20;;;7.80;99.90;;;;;;5003417;28;20043;-80
2023/05/16 01:11:06;;;;;;;9.43;2.92;;;7.70;99.90;;;;;;4990955;28;20045;-80
2023/05/16 01:13:47;;;;;;;15.00;3.22;;;7.70;99.90;;;;;;5008529;28;20053;-79
2023/05/16 01:16:29;;;;;;;15.10;3.28;;;7.60;99.90;;;;;;4991534;28;20132;-80
2023/05/16 01:19:20;;;;;;;17.07;3.53;;;7.60;99.90;;;;;;4990391;28;20069;-80
2023/05/16 01:22:01;;;;;;;15.20;3.55;;;7.60;99.90;;;;;;5000627;28;20061;-80
2023/05/16 01:24:42;;;;;;;10.82;3.28;;;7.50;99.90;;;;;;5002315;28;20034;-80
2023/05/16 01:27:09;;;;;;;13.20;3.30;;;7.50;99.90;;;;;;5020919;28;20124;-80
2023/05/16 01:29:35;;;;;;;8.68;3.28;;;7.50;99.90;;;;;;4992142;28;20053;-80
2023/05/16 01:32:01;;;;;;;9.93;2.88;;;7.40;99.90;;;;;;5005641;28;20041;-81
2023/05/16 01:34:26;;;;;;;18.27;3.50;;;7.40;99.90;;;;;;5010014;28;20668;-81
2023/05/16 01:37:20;;;;;;;11.65;2.80;;;7.40;99.90;;;;;;4984189;28;20172;-81
2023/05/16 01:40:40;;;;;;;23.63;3.55;;;7.30;99.90;;;;;;4993666;28;20031;-80
2023/05/16 01:43:11;;;;;;;15.13;3.10;;;7.30;99.90;;;;;;4982111;28;20029;-80
2023/05/16 01:45:42;;;;;;;12.93;3.25;;;7.30;99.90;;;;;;4974012;28;20041;-80
2023/05/16 01:48:12;;;;;;;15.93;3.10;;;7.40;99.90;;;;;;4972751;28;20050;-80
2023/05/16 01:50:46;;;;;;;17.58;3.58;;;7.20;99.90;;;;;;5003197;28;20064;-81
2023/05/16 01:53:18;;;;;;;14.68;2.80;;;7.20;99.90;;;;;;5001994;28;20052;-80
2023/05/16 01:55:50;;;;;;;16.40;3.03;;;7.10;99.90;;;;;;5002200;28;20053;-80
2023/05/16 01:58:20;;;;;;;20.60;4.25;;;7.10;99.90;;;;;;5012439;28;20034;-80
2023/05/16 02:00:45;;;;;;;11.48;2.97;;;7.10;99.90;;;;;;4996493;28;20137;-80
2023/05/16 02:03:11;;;;;;;9.32;2.63;;;7.00;99.90;;;;;;5006518;28;20117;-81
2023/05/16 02:05:37;;;;;;;15.57;3.70;;;7.00;99.90;;;;;;4985824;28;20136;-81
2023/05/16 02:08:03;;;;;;;15.25;3.20;;;7.00;99.90;;;;;;4994028;28;20061;-80
2023/05/16 02:10:30;;;;;;;13.27;2.92;;;6.90;99.90;;;;;;4974404;28;20061;-79
2023/05/16 02:12:56;;;;;;;16.75;3.45;;;6.90;99.90;;;;;;5000788;28;20049;-80
2023/05/16 02:15:22;;;;;;;11.52;2.63;;;6.90;99.90;;;;;;5006764;28;20123;-80
2023/05/16 02:17:48;;;;;;;15.20;2.95;;;6.90;99.90;;;;;;4984987;28;20084;-79
2023/05/16 02:20:14;;;;;;;12.57;3.20;;;6.80;99.90;;;;;;4966568;28;20038;-80
2023/05/16 02:22:41;;;;;;;12.35;2.60;;;6.80;99.90;;;;;;4994367;28;20124;-80
2023/05/16 02:25:07;;;;;;;13.35;2.63;;;6.80;99.90;;;;;;4994573;28;20048;-80
2023/05/16 02:27:33;;;;;;;14.27;2.83;;;6.80;99.90;;;;;;5014397;28;20053;-79
2023/05/16 02:29:58;;;;;;;16.85;2.65;;;6.70;99.90;;;;;;4991564;28;21549;-80
2023/05/16 02:32:25;;;;;;;14.60;2.80;;;6.70;99.90;;;;;;4986653;28;20034;-80
2023/05/16 02:34:51;;;;;;;10.48;2.35;;;6.70;99.90;;;;;;4993000;28;20080;-80
2023/05/16 02:37:16;;;;;;;12.07;2.92;;;6.10;99.90;;;;;;5022596;28;20045;-80
2023/05/16 02:39:42;;;;;;;13.55;2.92;;;6.70;99.90;;;;;;4998253;28;20883;-80
2023/05/16 02:42:08;;;;;;;10.40;2.65;;;6.70;99.90;;;;;;4993531;28;20029;-79
2023/05/16 02:44:33;;;;;;;13.55;2.75;;;6.70;99.90;;;;;;4980579;28;20130;-80
2023/05/16 02:46:59;;;;;;;13.20;3.30;;;6.70;99.90;;;;;;4990560;28;20785;-82
2023/05/16 02:49:25;;;;;;;10.77;2.90;;;6.60;99.90;;;;;;5008553;28;20040;-80
2023/05/16 02:51:51;;;;;;;13.48;3.03;;;6.60;99.90;;;;;;5007345;28;20180;-80
2023/05/16 02:54:17;;;;;;;19.10;3.80;;;6.70;99.90;;;;;;4992219;28;20586;-80
2023/05/16 02:56:43;;;;;;;21.23;3.33;;;6.50;99.90;;;;;;4991760;28;20491;-80
2023/05/16 02:59:10;;;;;;;16.13;3.20;;;6.50;99.90;;;;;;4992275;28;20037;-80
2023/05/16 03:01:36;;;;;;;14.75;2.83;;;6.50;99.90;;;;;;5004834;28;20037;-80
2023/05/16 03:04:02;;;;;;;12.40;2.47;;;6.50;99.90;;;;;;5008794;28;20402;-80
2023/05/16 03:06:29;;;;;;;13.65;3.25;;;6.50;99.90;;;;;;5007954;28;20033;-80
2023/05/16 03:08:54;;;;;;;6.80;2.63;;;6.50;99.90;;;;;;5024445;28;20069;-80
2023/05/16 03:11:21;;;;;;;13.05;2.97;;;6.40;99.90;;;;;;4990067;28;20752;-80
2023/05/16 03:13:47;;;;;;;13.82;3.30;;;6.40;99.90;;;;;;4975189;28;20045;-80
2023/05/16 03:16:13;;;;;;;12.57;3.13;;;6.40;99.90;;;;;;4974590;28;20033;-80
2023/05/16 03:18:39;;;;;;;17.25;3.40;;;6.30;99.90;;;;;;4990846;28;20040;-80
2023/05/16 03:21:05;;;;;;;9.80;2.75;;;6.30;99.90;;;;;;4989384;28;20033;-80
2023/05/16 03:23:30;;;;;;;21.70;3.42;;;6.30;99.90;;;;;;4990186;28;20043;-80
2023/05/16 03:25:56;;;;;;;11.88;3.03;;;6.30;99.90;;;;;;4990804;28;20493;-81
2023/05/16 03:28:22;;;;;;;15.18;2.95;;;6.30;99.90;;;;;;4991303;28;20076;-81
2023/05/16 03:30:47;;;;;;;14.63;3.13;;;6.30;99.90;;;;;;5006726;28;20041;-81
2023/05/16 03:33:13;;;;;;;14.60;3.05;;;6.30;99.90;;;;;;5007773;28;20042;-80
2023/05/16 03:35:39;;;;;;;16.08;2.80;;;6.30;99.90;;;;;;4990615;28;20047;-80
2023/05/16 03:38:05;;;;;;;11.75;2.83;;;6.40;99.90;;;;;;4996740;28;20036;-80
2023/05/16 03:40:30;;;;;;;9.93;2.70;;;6.40;99.90;;;;;;5007209;28;20131;-81
2023/05/16 03:42:56;;;;;;;16.95;3.00;;;6.50;99.90;;;;;;4991776;28;20037;-81
2023/05/16 03:45:22;;;;;;;11.05;3.83;;;6.50;99.90;;;;;;4973639;28;20599;-79
2023/05/16 03:47:49;;;;;;;20.20;3.28;;;6.60;99.90;;;;;;5005227;28;20056;-80
2023/05/16 03:50:15;;;;;;;13.93;2.60;;;6.60;99.90;;;;;;4982941;28;20061;-80
2023/05/16 03:52:41;;;;;;;11.90;3.22;;;6.60;99.90;;;;;;4985191;28;20046;-80
2023/05/16 03:55:08;;;;;;;13.32;2.97;;;6.80;99.90;;;;;;4968575;28;20433;-80
2023/05/16 03:57:35;;;;;;;12.15;2.60;;;6.70;99.90;;;;;;4967643;28;20125;-80
2023/05/16 04:00:02;;;;;;;15.30;2.63;;;6.70;99.90;;;;;;4975880;28;20042;-80
2023/05/16 04:02:28;;;;;;;18.10;3.33;;;6.70;99.90;;;;;;4976930;28;20034;-80
2023/05/16 04:04:54;;;;;;;14.57;3.72;;;6.60;99.90;;;;;;4950525;28;20041;-80
2023/05/16 04:07:19;;;;;;;16.15;3.17;;;6.60;99.90;;;;;;4953821;28;20030;-80
2023/05/16 04:09:45;;;;;;;13.82;3.15;;;6.70;99.90;;;;;;4955111;28;20348;-80
2023/05/16 04:12:11;;;;;;;12.00;3.30;;;6.70;99.90;;;;;;4981860;28;20030;-79
2023/05/16 04:14:37;;;;;;;10.70;2.60;;;6.80;99.90;;;;;;4969199;28;20043;-80
2023/05/16 04:17:03;;;;;;;13.02;2.88;;;6.80;99.90;;;;;;4970328;28;20041;-79
2023/05/16 04:19:28;;;;;;;8.85;3.03;;;6.90;99.90;;;;;;4953074;28;20034;-79
2023/05/16 04:21:54;;;;;;;12.40;2.95;;;6.90;99.90;;;;;;4966214;28;20415;-80
2023/05/16 04:24:20;;;;;;;11.75;2.88;;;6.90;99.90;;;;;;4977864;28;20038;-80
2023/05/16 04:26:46;;;;;;;12.32;2.55;;;6.90;99.90;;;;;;4960456;28;20038;-80
2023/05/16 04:29:13;;;;;;;10.63;2.78;;;6.90;99.90;;;;;;4983932;28;20432;-79
2023/05/16 04:31:39;;;;;;;8.80;2.60;;;6.90;99.90;;;;;;4965619;28;20557;-79
2023/05/16 04:34:04;;;;;;;10.10;2.70;;;6.90;99.90;;;;;;4977873;28;20038;-80
2023/05/16 04:36:30;;;;;;;8.75;2.75;;;6.90;99.90;;;;;;4970827;28;20034;-79
2023/05/16 04:38:56;;;;;;;9.93;2.38;;;6.90;99.90;;;;;;4951781;28;20145;-79
2023/05/16 04:41:22;;;;;;;14.18;3.10;;;6.90;99.90;;;;;;4969390;28;20049;-79
2023/05/16 04:43:48;;;;;;;16.15;3.30;;;6.80;99.90;;;;;;4972218;28;21479;-80
2023/05/16 04:46:14;;;;;;;11.50;2.50;;;6.90;99.90;;;;;;4955124;28;20480;-80
2023/05/16 04:48:40;;;;;;;10.95;2.72;;;6.80;99.90;;;;;;4978679;28;20042;-80
2023/05/16 04:51:06;;;;;;;10.73;2.72;;;6.90;99.90;;;;;;5001570;28;20503;-80
2023/05/16 04:53:32;;;;;;;13.60;3.17;;;6.80;99.90;;;;;;5017550;28;20049;-80
2023/05/16 04:55:58;;;;;;;10.75;2.80;;;6.90;99.90;;;;;;5002329;28;20046;-80
2023/05/16 04:58:24;;;;;;;12.60;2.50;;;6.90;99.90;;;;;;5012649;28;20550;-80
2023/05/16 05:00:54;;;;;;;9.32;2.92;;;6.90;99.90;;;;;;4993475;28;20125;-80
2023/05/16 05:03:20;;;;;;;21.98;3.67;;;7.00;99.90;;;;;;4993483;28;20694;-80
2023/05/16 05:05:46;;;;;;;11.38;2.85;;;7.00;99.90;;;;;;4983469;28;20042;-80
2023/05/16 05:08:12;;;;;;;14.18;3.33;;;7.00;99.90;;;;;;4965319;28;20049;-80
2023/05/16 05:10:39;;;;;;;10.85;2.38;;;7.00;99.90;;;;;;5003690;28;20038;-80
2023/05/16 05:13:04;;;;;;;9.90;2.75;;;7.10;99.90;;;;;;5020357;28;20060;-79
2023/05/16 05:15:30;;;;;;;16.70;3.05;;;7.10;99.90;;;;;;5007613;28;20502;-79
2023/05/16 05:17:56;;;;;;;9.90;2.70;;;7.20;99.90;;;;;;5001019;28;20033;-80
2023/05/16 05:20:22;;;;;;;9.32;2.45;;;7.30;99.90;;;;;;4992724;28;20129;-82
2023/05/16 05:22:48;;;;;;;9.52;2.15;;;7.30;99.90;;;;;;5001258;28;20046;-79
2023/05/16 05:25:13;;;;;;;12.57;3.53;;;7.40;99.90;;;;;;4978130;28;20053;-78
2023/05/16 05:27:39;;;;;;;12.95;2.65;;;7.40;99.90;;;;;;4969564;28;20046;-78
2023/05/16 05:30:05;;;;;;;12.93;3.65;;;7.40;99.90;;;;;;4978270;28;20034;-79
2023/05/16 05:32:31;;;;;;;11.18;2.67;;;7.50;99.90;;;;;;5009211;28;20037;-79
2023/05/16 05:34:57;;;;;;;14.43;3.10;;;7.50;99.90;;;;;;4998291;28;20033;-81
2023/05/16 05:37:23;;;;;;;10.30;2.70;;;7.60;99.90;;;;;;4968421;28;20748;-83
2023/05/16 05:39:48;;;;;;;11.60;2.67;;;7.70;99.90;;;;;;4985937;28;20073;-80
2023/05/16 05:42:14;;;;;;;9.88;2.45;;;7.70;99.90;;;;;;4974512;28;20438;-80
2023/05/16 05:44:40;;;;;;;13.50;3.05;;;7.80;99.90;;;;;;4994373;28;20029;-80
2023/05/16 05:47:06;;;;;;;11.50;2.85;;;7.90;99.90;;;;;;5026458;28;20574;-80
2023/05/16 05:49:32;;;;;;;12.05;2.70;;;8.00;99.90;;;;;;5012780;28;20958;-80
2023/05/16 05:51:58;;;;;;;8.55;2.40;;;8.00;99.90;;;;;;5018567;28;20057;-80
2023/05/16 05:54:24;;;;;;;13.13;2.45;;;8.10;99.90;;;;;;4968459;28;20041;-80
2023/05/16 05:56:50;;;;;;;11.80;2.53;;;8.30;99.90;;;;;;4996589;28;20594;-80
2023/05/16 05:59:16;;;;;;;9.50;2.25;;;8.40;99.90;;;;;;4981380;28;20044;-80
2023/05/16 06:01:43;;;;;;;10.15;2.50;;;8.50;99.90;;;;;;4995972;28;20068;-80
2023/05/16 06:04:09;;;;;;;11.63;2.40;;;8.60;99.90;;;;;;4980607;28;20037;-80
2023/05/16 06:06:36;;;;;;;9.73;2.55;;;8.70;99.90;;;;;;4996412;28;20080;-80
2023/05/16 06:09:02;;;;;;;11.50;2.58;;;8.80;99.90;;;;;;5013462;28;20051;-80
2023/05/16 06:11:28;;;;;;;10.15;2.35;;;8.80;99.90;;;;;;4993270;28;20037;-79
2023/05/16 06:13:54;;;;;;;10.23;1.98;;;8.90;99.90;;;;;;5007802;28;20033;-80
2023/05/16 06:16:24;;;;;;;8.07;2.70;;;9.00;99.90;;;;;;4996030;28;20038;-79
2023/05/16 06:18:50;;;;;;;16.00;2.80;;;9.00;99.90;;;;;;4993090;28;20048;-80
2023/05/16 06:21:15;;;;;;;9.38;2.30;;;9.10;99.90;;;;;;4996249;28;20034;-79
2023/05/16 06:23:41;;;;;;;9.57;2.33;;;9.10;99.90;;;;;;4994822;28;20049;-80
2023/05/16 06:26:07;;;;;;;9.90;2.05;;;9.10;99.90;;;;;;4980610;28;20076;-79
2023/05/16 06:28:33;;;;;;;6.90;2.10;;;9.20;99.90;;;;;;4994933;28;20611;-80
2023/05/16 06:30:59;;;;;;;7.93;2.00;;;9.30;99.90;;;;;;5001020;28;20033;-80
2023/05/16 06:33:25;;;;;;;11.18;2.22;;;9.30;99.90;;;;;;5026520;28;20536;-80
2023/05/16 06:35:51;;;;;;;8.80;2.38;;;9.30;99.90;;;;;;4979446;28;20037;-80
2023/05/16 06:38:18;;;;;;;8.65;2.28;;;9.40;99.90;;;;;;5012834;28;20120;-80
2023/05/16 06:40:44;;;;;;;8.70;1.80;;;9.40;99.90;;;;;;5008226;28;20145;-80
2023/05/16 06:43:10;;;;;;;9.05;1.83;;;9.50;99.90;;;;;;4993529;28;20529;-80
2023/05/16 06:45:37;;;;;;;5.95;1.95;;;9.60;99.90;;;;;;5008725;28;20049;-81
2023/05/16 06:48:03;;;;;;;12.20;1.88;;;9.70;99.90;;;;;;4991389;28;20034;-77
2023/05/16 06:50:29;;;;;;;7.97;2.40;;;9.80;99.90;;;;;;4982530;28;20642;-77
2023/05/16 06:52:55;;;;;;;9.55;2.47;;;9.90;99.90;;;;;;4995460;28;20133;-78
2023/05/16 06:55:20;;;;;;;9.32;2.10;;;10.10;99.90;;;;;;4986458;28;20042;-77
2023/05/16 06:57:46;;;;;;;10.35;2.78;;;10.20;99.90;;;;;;4989627;28;20045;-77
2023/05/16 07:00:13;;;;;;;10.20;1.90;;;10.20;99.90;;;;;;4991422;28;20033;-77
2023/05/16 07:02:39;;;;;;;8.00;2.03;;;10.40;99.90;;;;;;4982626;28;20471;-76
2023/05/16 07:05:06;;;;;;;9.05;2.33;;;10.60;99.90;;;;;;5006674;28;20037;-76
2023/05/16 07:07:32;;;;;;;4.97;1.85;;;10.80;99.90;;;;;;5008095;28;20060;-76
2023/05/16 07:09:57;;;;;;;9.35;1.80;;;11.10;99.90;;;;;;4994579;28;20496;-78
2023/05/16 07:12:23;;;;;;;8.50;2.28;;;11.40;99.90;;;;;;4992362;28;20040;-79
2023/05/16 07:14:49;;;;;;;7.18;2.95;;;11.70;99.90;;;;;;5003406;28;20038;-79
2023/05/16 07:17:15;;;;;;;12.48;2.10;;;12.10;99.90;;;;;;4993135;28;20042;-78
2023/05/16 07:19:40;;;;;;;7.93;2.13;;;12.10;99.90;;;;;;4978241;28;20101;-78
2023/05/16 07:22:06;;;;;;;5.57;1.80;;;11.80;99.90;;;;;;4993758;28;20491;-78
2023/05/16 07:24:32;;;;;;;5.90;1.92;;;11.60;99.90;;;;;;5008453;28;20125;-78
2023/05/16 07:26:58;;;;;;;11.13;2.33;;;11.50;99.90;;;;;;4981255;28;20177;-78
2023/05/16 07:29:24;;;;;;;8.70;2.10;;;12.20;99.90;;;;;;5001976;28;20123;-78
2023/05/16 07:31:50;;;;;;;5.50;2.75;;;13.00;99.90;;;;;;4990128;28;20046;-78
2023/05/16 07:34:16;;;;;;;11.75;2.30;;;13.60;99.90;;;;;;4985722;28;20545;-79
2023/05/16 07:36:41;;;;;;;9.48;2.35;;;14.00;99.90;;;;;;4961166;28;20045;-78
2023/05/16 07:39:07;;;;;;;8.32;1.95;;;14.10;99.90;;;;;;4990023;28;20038;-78
2023/05/16 07:41:33;;;;;;;5.65;1.88;;;14.30;99.90;;;;;;4990255;28;20499;-79
2023/05/16 07:43:58;;;;;;;7.25;2.40;;;14.40;99.90;;;;;;4976393;28;20038;-78
2023/05/16 07:46:24;;;;;;;7.93;2.63;;;14.00;99.90;;;;;;4993081;28;20124;-78
2023/05/16 07:48:50;;;;;;;4.43;1.63;;;13.70;99.90;;;;;;4993194;28;20103;-79
2023/05/16 07:51:16;;;;;;;5.13;1.63;;;13.90;99.90;;;;;;5004944;28;20092;-78
2023/05/16 07:53:42;;;;;;;5.53;1.30;;;14.60;99.90;;;;;;5011083;28;20068;-78
2023/05/16 07:56:08;;;;;;;5.25;1.45;;;15.10;99.70;;;;;;4995603;28;20041;-78
2023/05/16 07:58:34;;;;;;;4.50;1.63;;;15.60;99.90;;;;;;5013007;28;20041;-78
2023/05/16 08:00:59;;;;;;;4.18;1.27;;;15.00;95.70;;;;;;5012269;28;20573;-78
2023/05/16 08:03:25;;;;;;;3.60;1.40;;;14.40;95.90;;;;;;5011901;28;20076;-78
2023/05/16 08:05:51;;;;;;;3.97;1.33;;;14.50;96.90;;;;;;5029011;28;20069;-78
2023/05/16 08:08:17;;;;;;;3.97;1.30;;;14.90;97.10;;;;;;5012319;28;20073;-78
2023/05/16 08:10:43;;;;;;;4.10;1.60;;;14.60;95.10;;;;;;5011721;28;20409;-78
2023/05/16 08:13:08;;;;;;;4.53;1.52;;;14.80;96.00;;;;;;5006429;28;20045;-78
2023/05/16 08:15:34;;;;;;;5.40;1.40;;;15.30;94.80;;;;;;4996056;28;20045;-78
2023/05/16 08:18:00;;;;;;;6.63;1.65;;;15.10;94.00;;;;;;5011865;28;20037;-78
2023/05/16 08:20:26;;;;;;;3.72;1.35;;;15.20;93.90;;;;;;5012447;28;20069;-78
2023/05/16 08:22:53;;;;;;;4.47;1.27;;;15.20;93.30;;;;;;5020781;28;20505;-79
2023/05/16 08:25:19;;;;;;;4.90;1.85;;;15.10;92.60;;;;;;5008090;28;20042;-78
2023/05/16 08:27:45;;;;;;;3.55;1.40;;;15.20;92.60;;;;;;4983457;28;20128;-78
2023/05/16 08:30:12;;;;;;;6.10;1.73;;;15.10;93.00;;;;;;5010969;28;20091;-78
2023/05/16 08:32:38;;;;;;;5.38;1.85;;;15.50;92.50;;;;;;4989221;28;20071;-78
2023/05/16 08:35:04;;;;;;;6.38;1.58;;;16.10;93.30;;;;;;5012185;28;20038;-79
2023/05/16 08:37:29;;;;;;;5.43;1.70;;;16.20;92.00;;;;;;5008306;28;20133;-78
2023/05/16 08:39:55;;;;;;;5.90;1.90;;;16.50;91.60;;;;;;5012005;28;20109;-78
2023/05/16 08:42:21;;;;;;;6.30;1.90;;;16.60;91.60;;;;;;4995490;28;20042;-79
2023/05/16 08:44:47;;;;;;;5.22;2.05;;;16.90;90.50;;;;;;4995821;28;20068;-79
2023/05/16 08:47:20;;;;;;;18.83;2.00;;;16.80;91.70;;;;;;5010785;28;20049;-79
2023/05/16 08:49:47;;;;;;;4.10;1.55;;;16.30;90.00;;;;;;5016256;28;20042;-79
2023/05/16 08:52:18;;;;;;;6.93;1.90;;;15.90;90.60;;;;;;4999065;28;20130;-79
2023/05/16 08:54:45;;;;;;;9.55;2.10;;;16.20;91.00;;;;;;4969655;28;20412;-80
2023/05/16 08:57:12;;;;;;;4.10;1.42;;;15.80;88.20;;;;;;4979818;28;20047;-80
2023/05/16 08:59:39;;;;;;;6.57;1.73;;;14.90;82.50;;;;;;4975477;28;20157;-80
2023/05/16 09:02:05;;;;;;;2.40;1.48;;;14.90;86.30;;;;;;4977484;28;20503;-78
2023/05/16 09:04:31;;;;;;;7.65;2.15;;;15.50;86.40;;;;;;4966118;28;20045;-78
2023/05/16 09:06:56;;;;;;;6.68;1.92;;;16.10;84.30;;;;;;4966641;28;20491;-78
2023/05/16 09:09:23;;;;;;;5.07;1.60;;;16.20;84.80;;;;;;4945318;28;20104;-78
2023/05/16 09:11:49;;;;;;;6.75;1.92;;;16.70;84.30;;;;;;4936927;28;20482;-78
2023/05/16 09:14:14;;;;;;;2.65;1.52;;;17.00;84.80;;;;;;4945913;28;20068;-78
2023/05/16 09:16:40;;;;;;;6.88;1.98;;;16.40;85.70;;;;;;4938494;28;20039;-78
2023/05/16 09:19:06;;;;;;;9.13;2.05;;;15.50;86.20;;;;;;4962091;28;20073;-79
2023/05/16 09:21:33;;;;;;;12.45;3.25;;;14.80;89.00;;;;;;4960936;28;20278;-79
2023/05/16 09:24:06;;;;;;;7.18;2.13;;;14.20;90.70;;;;;;4944788;28;20068;-80
2023/05/16 09:26:34;;;;;;;4.88;1.88;;;14.40;92.00;;;;;;5001181;28;20561;-80
2023/05/16 09:29:01;;;;;;;4.80;2.05;;;14.90;92.50;;;;;;4974838;28;20052;-80
2023/05/16 09:31:36;;;;;;;5.32;1.85;;;15.30;90.40;;;;;;4958710;28;20115;-80
2023/05/16 09:34:06;;;;;;;6.57;1.90;;;15.60;87.90;;;;;;4972555;28;20130;-80
2023/05/16 09:36:32;;;;;;;8.90;2.60;;;15.20;89.00;;;;;;4987234;28;20080;-81
2023/05/16 09:38:59;;;;;;;9.02;2.30;;;14.70;90.70;;;;;;4969840;28;20046;-80
2023/05/16 09:41:25;;;;;;;7.22;2.00;;;14.90;92.10;;;;;;4957863;28;20038;-78
2023/05/16 09:43:50;;;;;;;5.63;1.88;;;14.70;92.10;;;;;;4947448;28;20038;-77
2023/05/16 09:46:18;;;;;;;4.40;1.92;;;14.70;92.60;;;;;;4968029;28;20415;-78
2023/05/16 09:48:48;;;;;;;6.05;1.67;;;14.90;91.30;;;;;;4956934;28;20065;-79
2023/05/16 09:51:13;;;;;;;4.28;1.80;;;15.20;89.30;;;;;;4981374;28;20835;-77
2023/05/16 09:53:43;;;;;;;5.15;2.25;;;15.20;90.60;;;;;;5002412;28;20041;-78
2023/05/16 09:56:13;;;;;;;9.38;2.33;;;15.20;91.20;;;;;;4988634;28;20450;-79
2023/05/16 09:58:41;;;;;;;4.82;1.90;;;14.90;90.70;;;;;;4975817;28;20503;-79
2023/05/16 10:01:08;;;;;;;9.35;2.17;;;14.80;91.20;;;;;;4968499;28;20077;-80
2023/05/16 10:03:36;;;;;;;6.45;1.55;;;14.40;90.90;;;;;;4977359;28;20044;-80
2023/05/16 10:06:04;;;;;;;6.50;1.95;;;14.20;91.00;;;;;;4970675;28;20482;-80
2023/05/16 10:08:35;;;;;;;4.63;1.90;;;13.90;91.00;;;;;;4984291;28;20868;-80
2023/05/16 10:11:01;;;;;;;5.18;1.55;;;13.60;91.20;;;;;;4991952;28;20038;-80
2023/05/16 10:13:32;;;;;;;6.43;2.05;;;13.70;91.60;;;;;;4938099;28;20128;-78
2023/05/16 10:16:00;;;;;;;6.38;1.65;;;14.20;91.80;;;;;;4989060;28;20538;-78
2023/05/16 10:18:30;;;;;;;6.63;1.77;;;14.40;91.90;;;;;;4984086;28;20137;-78
2023/05/16 10:21:05;;;;;;;7.75;1.98;;;14.50;90.90;;;;;;4980128;28;20531;-79
2023/05/16 10:23:32;;;;;;;5.32;2.10;;;14.90;90.40;;;;;;4983840;28;20120;-79
2023/05/16 10:26:02;;;;;;;5.38;1.80;;;14.90;88.00;;;;;;5011566;28;20053;-76
2023/05/16 10:28:28;;;;;;;5.05;1.60;;;14.90;86.90;;;;;;4983489;28;20056;-78
2023/05/16 10:30:55;;;;;;;6.03;1.50;;;15.20;90.00;;;;;;4997112;28;20434;-78
2023/05/16 10:33:21;;;;;;;5.90;1.80;;;15.20;86.40;;;;;;4979574;28;20041;-77
2023/05/16 10:35:47;;;;;;;5.20;1.42;;;15.40;86.70;;;;;;4994199;28;20040;-78
2023/05/16 10:38:16;;;;;;;5.30;1.73;;;15.70;85.50;;;;;;4971111;28;20560;-77
2023/05/16 10:40:42;;;;;;;4.70;1.70;;;15.50;86.00;;;;;;4992174;28;20080;-77
2023/05/16 10:43:08;;;;;;;6.57;1.60;;;15.60;87.10;;;;;;4982482;28;20045;-77
2023/05/16 10:45:39;;;;;;;6.88;1.77;;;15.90;88.20;;;;;;4987770;28;20050;-77
2023/05/16 10:48:07;;;;;;;6.05;1.88;;;16.00;84.30;;;;;;4985402;28;20037;-77
2023/05/16 10:50:37;;;;;;;6.68;1.13;;;16.10;85.40;;;;;;4996067;28;20156;-79
2023/05/16 10:53:30;;;;;;;4.82;1.20;;;16.30;85.90;;;;;;4998576;28;20104;-78
2023/05/16 10:55:58;;;;;;;6.47;1.63;;;16.30;84.90;;;;;;4994926;28;20045;-79
2023/05/16 10:58:41;;;;;;;5.65;1.60;;;16.20;85.80;;;;;;4981704;28;20045;-79
2023/05/16 11:01:33;;;;;;;3.72;1.35;;;15.90;85.40;;;;;;4997503;28;20033;-78
2023/05/16 11:04:03;;;;;;;3.95;1.60;;;15.40;84.00;;;;;;4979969;28;20412;-78
2023/05/16 11:06:41;;;;;;;5.53;1.42;;;15.50;87.40;;;;;;4994182;28;20698;-78
2023/05/16 11:09:10;;;;;;;6.72;1.90;;;15.30;85.20;;;;;;4982717;28;21230;-78
2023/05/16 11:11:52;;;;;;;5.57;1.58;;;15.00;85.70;;;;;;4997574;28;20071;-78
2023/05/16 11:14:27;;;;;;;7.93;2.20;;;15.00;84.60;;;;;;4997166;28;20154;-78
2023/05/16 11:17:07;;;;;;;5.20;1.75;;;15.20;88.40;;;;;;4994009;28;20312;-78
2023/05/16 11:19:49;;;;;;;8.13;1.90;;;15.40;87.80;;;;;;4993581;28;20052;-78
2023/05/16 11:22:18;;;;;;;5.17;1.63;;;15.50;88.80;;;;;;4983440;28;20043;-78
2023/05/16 11:24:52;;;;;;;4.15;1.67;;;15.70;87.50;;;;;;4998143;28;20037;-78
2023/05/16 11:27:27;;;;;;;5.78;1.60;;;15.90;87.10;;;;;;4994358;28;20056;-78
2023/05/16 11:29:57;;;;;;;3.10;1.13;;;15.70;86.10;;;;;;5013186;28;20053;-78
2023/05/16 11:32:23;;;;;;;3.38;1.48;;;15.30;86.80;;;;;;5010190;28;20045;-78
2023/05/16 11:34:50;;;;;;;4.57;2.05;;;15.20;86.30;;;;;;5029780;28;20037;-78
2023/05/16 11:37:18;;;;;;;8.07;1.75;;;15.50;86.80;;;;;;5010739;28;20103;-78
2023/05/16 11:39:45;;;;;;;4.53;1.55;;;15.60;85.40;;;;;;5012326;28;20124;-78
2023/05/16 11:42:12;;;;;;;5.75;1.55;;;15.40;84.70;;;;;;5011170;28;20147;-78
2023/05/16 11:44:39;;;;;;;4.55;1.25;;;15.30;83.60;;;;;;4996829;28;20483;-78
2023/05/16 11:47:06;;;;;;;6.68;1.80;;;15.10;84.40;;;;;;5012044;28;20045;-78
2023/05/16 11:49:34;;;;;;;5.10;2.05;;;15.00;86.80;;;;;;5010478;28;20045;-78
2023/05/16 11:52:00;;;;;;;4.75;1.20;;;14.60;85.50;;;;;;4971988;28;20813;-78
2023/05/16 11:54:26;;;;;;;2.50;1.27;;;14.90;87.20;;;;;;4976197;28;20041;-78
2023/05/16 11:56:52;;;;;;;5.00;1.80;;;15.30;89.80;;;;;;5010329;28;20262;-78
2023/05/16 11:59:19;;;;;;;4.47;1.77;;;15.50;86.10;;;;;;4984632;28;20500;-78
2023/05/16 12:01:49;;;;;;;7.88;1.63;;;15.30;85.50;;;;;;4988817;28;20390;-78
2023/05/16 12:04:16;;;;;;;4.10;1.98;;;15.20;83.90;;;;;;4970233;28;20034;-78
2023/05/16 12:06:43;;;;;;;7.45;1.90;;;15.50;87.00;;;;;;4989108;28;20046;-78
2023/05/16 12:09:13;;;;;;;9.65;2.13;;;15.50;84.50;;;;;;4983212;28;20072;-78
2023/05/16 12:11:41;;;;;;;5.07;2.33;;;15.50;85.60;;;;;;4997721;28;20045;-78
2023/05/16 12:14:09;;;;;;;5.88;2.25;;;15.30;85.30;;;;;;4998341;28;20074;-78
2023/05/16 12:16:36;;;;;;;9.10;2.10;;;14.90;84.00;;;;;;5006339;28;20053;-78
2023/05/16 12:19:04;;;;;;;3.08;1.85;;;15.10;86.60;;;;;;5007050;28;20069;-78
2023/05/16 12:21:31;;;;;;;4.38;2.35;;;15.60;85.80;;;;;;4991728;28;20049;-78
2023/05/16 12:23:57;;;;;;;4.53;1.88;;;15.60;84.10;;;;;;4983066;28;20488;-78
2023/05/16 12:26:31;;;;;;;6.25;2.03;;;15.50;84.20;;;;;;5018748;28;20183;-78
2023/05/16 12:29:01;;;;;;;7.65;3.08;;;15.50;84.90;;;;;;4988353;28;20117;-78
2023/05/16 12:31:29;;;;;;;7.15;2.63;;;15.30;81.70;;;;;;4990804;28;20046;-78
2023/05/16 12:33:55;;;;;;;7.22;2.70;;;15.10;82.00;;;;;;5008906;28;20088;-78
2023/05/16 12:36:22;;;;;;;7.05;2.60;;;15.60;85.90;;;;;;5007293;28;20038;-78
2023/05/16 12:38:48;;;;;;;7.50;2.75;;;15.40;82.70;;;;;;4988245;28;20199;-78
2023/05/16 12:41:21;;;;;;;8.07;2.78;;;15.30;83.50;;;;;;4988716;28;20511;-78
2023/05/16 12:43:50;;;;;;;4.53;2.63;;;15.60;83.80;;;;;;4976779;28;20034;-78
2023/05/16 12:46:18;;;;;;;4.60;2.47;;;15.80;85.30;;;;;;4974628;28;20042;-78
2023/05/16 12:48:46;;;;;;;5.68;2.65;;;16.20;85.80;;;;;;5007984;28;20049;-78
2023/05/16 12:51:17;;;;;;;7.15;2.45;;;16.20;83.10;;;;;;5007417;28;20128;-78